MHH weather

Leonard M Thompson International Airport
Marsh Harbour, Marsh Harbour, Bahamas

Public forecast

Using degrees Celsius for public forecast. Weather courtesy of forecast.io.

METAR (pilot weather report)

Closest report is Grand Bahama International Airport, 86.6 nm (160.5 km) W. Retrieved 2019/08/23 00:00 UTC (1 hour ago):

MYGF 230000Z 08006KT 9999 VCSH FEW015CB BKN250 26/24 A2998

TAF (pilot weather forecast)

Forecast is more than 12 hours old.

Closest forecast is Grand Bahama International Airport, 86.6 nm (160.5 km) W. Retrieved 2019/08/22 00:45 UTC (1 day ago):

TAF MYGF 222230Z 2300/2324 12006KT 9999 VCTS FEW012CB SCT016 BKN018 PROB40 TEMPO 2306/2312 4800 SHRA SCT015CB SCT018 BKN100 FM231200 15010G25KT 7000 TSRA SCT012CB BKN018 OVC080